sensor_id;sensor_type;location;lat;lon;timestamp;pressure;altitude;pressure_sealevel;temperature;humidity
692;BME280;70475;50.084;8.576;2023-07-02T00:00:04;99970.09;;;16.49;100.00
692;BME280;70475;50.084;8.576;2023-07-02T00:02:32;99970.41;;;16.64;100.00
692;BME280;70475;50.084;8.576;2023-07-02T00:05:00;99965.75;;;16.59;100.00
692;BME280;70475;50.084;8.576;2023-07-02T00:07:28;99961.09;;;16.55;100.00
692;BME280;70475;50.084;8.576;2023-07-02T00:09:57;99968.44;;;16.48;100.00
692;BME280;70475;50.084;8.576;2023-07-02T00:12:24;99966.59;;;16.48;100.00
692;BME280;70475;50.084;8.576;2023-07-02T00:14:52;99969.75;;;16.33;100.00
692;BME280;70475;50.084;8.576;2023-07-02T00:17:20;99967.66;;;16.24;100.00
692;BME280;70475;50.084;8.576;2023-07-02T00:19:47;99963.34;;;16.23;100.00
692;BME280;70475;50.084;8.576;2023-07-02T00:22:19;99970.69;;;16.27;100.00
692;BME280;70475;50.084;8.576;2023-07-02T00:24:47;99973.28;;;16.22;100.00
692;BME280;70475;50.084;8.576;2023-07-02T00:27:16;99969.44;;;16.18;100.00
692;BME280;70475;50.084;8.576;2023-07-02T00:29:43;99969.75;;;16.33;100.00
692;BME280;70475;50.084;8.576;2023-07-02T00:32:11;99966.94;;;16.28;100.00
692;BME280;70475;50.084;8.576;2023-07-02T00:34:38;99975.66;;;16.07;100.00
692;BME280;70475;50.084;8.576;2023-07-02T00:37:06;99977.41;;;16.13;100.00
692;BME280;70475;50.084;8.576;2023-07-02T00:39:33;99982.53;;;16.15;100.00
692;BME280;70475;50.084;8.576;2023-07-02T00:42:01;99980.88;;;16.25;100.00
692;BME280;70475;50.084;8.576;2023-07-02T00:44:31;99977.97;;;16.15;100.00
692;BME280;70475;50.084;8.576;2023-07-02T00:47:00;99976.47;;;15.96;100.00
692;BME280;70475;50.084;8.576;2023-07-02T00:49:27;99973.91;;;15.90;100.00
692;BME280;70475;50.084;8.576;2023-07-02T00:51:55;99983.00;;;15.77;100.00
692;BME280;70475;50.084;8.576;2023-07-02T00:54:23;99983.25;;;15.76;100.00
692;BME280;70475;50.084;8.576;2023-07-02T00:56:51;99978.09;;;15.86;100.00
692;BME280;70475;50.084;8.576;2023-07-02T00:59:18;99989.78;;;15.68;100.00
692;BME280;70475;50.084;8.576;2023-07-02T01:01:47;99984.31;;;15.63;100.00
692;BME280;70475;50.084;8.576;2023-07-02T01:04:17;99983.94;;;15.60;100.00
692;BME280;70475;50.084;8.576;2023-07-02T01:06:45;99978.09;;;15.51;100.00
692;BME280;70475;50.084;8.576;2023-07-02T01:09:13;99980.19;;;15.49;100.00
692;BME280;70475;50.084;8.576;2023-07-02T01:11:43;99983.56;;;15.56;100.00
692;BME280;70475;50.084;8.576;2023-07-02T01:14:14;99978.69;;;15.76;100.00
692;BME280;70475;50.084;8.576;2023-07-02T01:16:43;99977.78;;;15.82;100.00
692;BME280;70475;50.084;8.576;2023-07-02T01:19:17;99970.28;;;15.61;100.00
692;BME280;70475;50.084;8.576;2023-07-02T01:21:48;99981.00;;;15.38;100.00
692;BME280;70475;50.084;8.576;2023-07-02T01:24:16;99989.84;;;15.39;100.00
692;BME280;70475;50.084;8.576;2023-07-02T01:26:44;99988.72;;;15.17;100.00
692;BME280;70475;50.084;8.576;2023-07-02T01:29:14;99987.34;;;15.14;100.00
692;BME280;70475;50.084;8.576;2023-07-02T01:31:42;99988.00;;;15.10;100.00
692;BME280;70475;50.084;8.576;2023-07-02T01:34:10;99991.34;;;14.94;100.00
692;BME280;70475;50.084;8.576;2023-07-02T01:36:37;99989.13;;;14.91;100.00
692;BME280;70475;50.084;8.576;2023-07-02T01:39:06;99993.38;;;14.80;100.00
692;BME280;70475;50.084;8.576;2023-07-02T01:41:37;99991.38;;;14.76;100.00
692;BME280;70475;50.084;8.576;2023-07-02T01:44:08;99991.09;;;14.66;100.00
692;BME280;70475;50.084;8.576;2023-07-02T01:46:36;99983.13;;;14.77;100.00
692;BME280;70475;50.084;8.576;2023-07-02T01:49:04;99983.03;;;14.84;100.00
692;BME280;70475;50.084;8.576;2023-07-02T01:51:31;99980.69;;;14.87;100.00
692;BME280;70475;50.084;8.576;2023-07-02T01:53:59;99988.44;;;14.95;100.00
692;BME280;70475;50.084;8.576;2023-07-02T01:56:28;99984.56;;;14.91;100.00
692;BME280;70475;50.084;8.576;2023-07-02T01:58:56;99992.56;;;14.80;100.00
692;BME280;70475;50.084;8.576;2023-07-02T02:01:23;99993.63;;;14.79;100.00
692;BME280;70475;50.084;8.576;2023-07-02T02:03:51;99996.53;;;14.77;100.00
692;BME280;70475;50.084;8.576;2023-07-02T02:06:19;99997.59;;;14.58;100.00
692;BME280;70475;50.084;8.576;2023-07-02T02:08:46;99997.97;;;14.43;100.00
692;BME280;70475;50.084;8.576;2023-07-02T02:11:14;100002.78;;;14.53;100.00
692;BME280;70475;50.084;8.576;2023-07-02T02:13:43;100002.34;;;14.56;100.00
692;BME280;70475;50.084;8.576;2023-07-02T02:16:11;100003.47;;;14.67;100.00
692;BME280;70475;50.084;8.576;2023-07-02T02:18:38;100012.78;;;14.64;100.00
692;BME280;70475;50.084;8.576;2023-07-02T02:21:06;100013.94;;;14.68;100.00
692;BME280;70475;50.084;8.576;2023-07-02T02:23:33;100006.47;;;14.59;100.00
692;BME280;70475;50.084;8.576;2023-07-02T02:26:01;100012.28;;;14.37;100.00
692;BME280;70475;50.084;8.576;2023-07-02T02:28:29;100011.31;;;14.32;100.00
692;BME280;70475;50.084;8.576;2023-07-02T02:30:57;100015.41;;;14.34;100.00
692;BME280;70475;50.084;8.576;2023-07-02T02:33:25;100017.25;;;14.34;100.00
692;BME280;70475;50.084;8.576;2023-07-02T02:35:53;100021.28;;;14.43;100.00
692;BME280;70475;50.084;8.576;2023-07-02T02:38:20;100018.44;;;14.38;100.00
692;BME280;70475;50.084;8.576;2023-07-02T02:40:48;100017.47;;;14.32;100.00
692;BME280;70475;50.084;8.576;2023-07-02T02:43:16;100025.16;;;14.29;100.00
692;BME280;70475;50.084;8.576;2023-07-02T02:45:43;100030.13;;;14.25;100.00
692;BME280;70475;50.084;8.576;2023-07-02T02:48:12;100028.72;;;14.23;100.00
692;BME280;70475;50.084;8.576;2023-07-02T02:50:40;100020.25;;;14.19;100.00
692;BME280;70475;50.084;8.576;2023-07-02T02:53:09;100027.91;;;14.16;100.00
692;BME280;70475;50.084;8.576;2023-07-02T02:55:37;100020.56;;;14.11;100.00
692;BME280;70475;50.084;8.576;2023-07-02T02:58:04;100032.81;;;14.19;100.00
692;BME280;70475;50.084;8.576;2023-07-02T03:00:32;100031.41;;;14.23;100.00
692;BME280;70475;50.084;8.576;2023-07-02T03:03:00;100039.34;;;14.29;99.58
692;BME280;70475;50.084;8.576;2023-07-02T03:05:30;100039.06;;;14.37;99.38
692;BME280;70475;50.084;8.576;2023-07-02T03:07:58;100041.06;;;14.42;98.82
692;BME280;70475;50.084;8.576;2023-07-02T03:10:26;100031.09;;;14.31;100.00
692;BME280;70475;50.084;8.576;2023-07-02T03:12:54;100039.00;;;14.26;98.70
692;BME280;70475;50.084;8.576;2023-07-02T03:15:22;100047.59;;;14.28;98.79
692;BME280;70475;50.084;8.576;2023-07-02T03:17:49;100040.41;;;14.22;97.15
692;BME280;70475;50.084;8.576;2023-07-02T03:20:17;100047.59;;;14.28;97.88
692;BME280;70475;50.084;8.576;2023-07-02T03:22:46;100040.19;;;14.30;97.85
692;BME280;70475;50.084;8.576;2023-07-02T03:25:15;100046.94;;;14.32;96.86
692;BME280;70475;50.084;8.576;2023-07-02T03:27:43;100040.19;;;14.30;97.16
692;BME280;70475;50.084;8.576;2023-07-02T03:30:10;100039.19;;;14.42;96.95
692;BME280;70475;50.084;8.576;2023-07-02T03:32:38;100043.66;;;14.48;97.35
692;BME280;70475;50.084;8.576;2023-07-02T03:35:06;100050.13;;;14.59;97.14
692;BME280;70475;50.084;8.576;2023-07-02T03:37:34;100051.69;;;14.48;95.05
692;BME280;70475;50.084;8.576;2023-07-02T03:40:04;100056.56;;;14.58;95.52
692;BME280;70475;50.084;8.576;2023-07-02T03:42:32;100053.25;;;14.56;95.65
692;BME280;70475;50.084;8.576;2023-07-02T03:45:00;100052.75;;;14.66;96.04
692;BME280;70475;50.084;8.576;2023-07-02T03:47:27;100059.81;;;14.42;94.78
692;BME280;70475;50.084;8.576;2023-07-02T03:49:55;100060.78;;;14.29;95.67
692;BME280;70475;50.084;8.576;2023-07-02T03:52:23;100067.84;;;14.24;94.49
692;BME280;70475;50.084;8.576;2023-07-02T03:54:50;100072.16;;;14.25;96.69
692;BME280;70475;50.084;8.576;2023-07-02T03:57:19;100075.03;;;14.23;97.53
692;BME280;70475;50.084;8.576;2023-07-02T03:59:47;100077.56;;;14.18;96.88
692;BME280;70475;50.084;8.576;2023-07-02T04:02:14;100078.13;;;14.20;97.69
692;BME280;70475;50.084;8.576;2023-07-02T04:04:42;100082.31;;;14.16;97.35
692;BME280;70475;50.084;8.576;2023-07-02T04:07:10;100085.63;;;14.12;96.64
692;BME280;70475;50.084;8.576;2023-07-02T04:09:37;100081.97;;;14.31;97.16
692;BME280;70475;50.084;8.576;2023-07-02T04:12:05;100082.16;;;14.36;95.97
692;BME280;70475;50.084;8.576;2023-07-02T04:14:34;100077.34;;;14.20;95.58
692;BME280;70475;50.084;8.576;2023-07-02T04:17:02;100084.31;;;14.21;94.42
692;BME280;70475;50.084;8.576;2023-07-02T04:19:30;100094.72;;;14.11;94.47
692;BME280;70475;50.084;8.576;2023-07-02T04:21:58;100091.38;;;14.15;94.02
692;BME280;70475;50.084;8.576;2023-07-02T04:24:26;100087.88;;;14.15;94.75
692;BME280;70475;50.084;8.576;2023-07-02T04:26:54;100087.88;;;14.15;94.60
692;BME280;70475;50.084;8.576;2023-07-02T04:29:43;100097.19;;;14.12;93.53
692;BME280;70475;50.084;8.576;2023-07-02T04:32:10;100101.88;;;14.17;93.90
692;BME280;70475;50.084;8.576;2023-07-02T04:34:38;100099.78;;;14.19;92.83
692;BME280;70475;50.084;8.576;2023-07-02T04:37:06;100109.31;;;14.15;93.25
692;BME280;70475;50.084;8.576;2023-07-02T04:39:33;100108.44;;;14.21;91.68
692;BME280;70475;50.084;8.576;2023-07-02T04:42:01;100102.03;;;14.22;90.12
692;BME280;70475;50.084;8.576;2023-07-02T04:44:28;100112.31;;;14.25;90.02
692;BME280;70475;50.084;8.576;2023-07-02T04:47:00;100111.88;;;14.28;90.59
692;BME280;70475;50.084;8.576;2023-07-02T04:49:27;100103.84;;;14.28;90.79
692;BME280;70475;50.084;8.576;2023-07-02T04:51:55;100110.56;;;14.37;91.40
692;BME280;70475;50.084;8.576;2023-07-02T04:54:23;100100.69;;;14.37;91.77
692;BME280;70475;50.084;8.576;2023-07-02T04:56:50;100100.59;;;14.44;89.77
692;BME280;70475;50.084;8.576;2023-07-02T04:59:21;100110.50;;;14.43;88.90
692;BME280;70475;50.084;8.576;2023-07-02T05:01:49;100111.09;;;14.45;90.68
692;BME280;70475;50.084;8.576;2023-07-02T05:04:18;100114.47;;;14.59;88.43
692;BME280;70475;50.084;8.576;2023-07-02T05:06:45;100125.34;;;14.64;88.30
692;BME280;70475;50.084;8.576;2023-07-02T05:09:13;100125.34;;;14.64;88.42
692;BME280;70475;50.084;8.576;2023-07-02T05:11:41;100128.81;;;14.65;89.18
692;BME280;70475;50.084;8.576;2023-07-02T05:14:08;100131.88;;;14.68;89.64
692;BME280;70475;50.084;8.576;2023-07-02T05:16:36;100124.00;;;14.73;87.20
692;BME280;70475;50.084;8.576;2023-07-02T05:19:03;100119.66;;;14.72;87.88
692;BME280;70475;50.084;8.576;2023-07-02T05:21:32;100120.44;;;14.79;89.89
692;BME280;70475;50.084;8.576;2023-07-02T05:24:00;100115.88;;;14.80;88.52
692;BME280;70475;50.084;8.576;2023-07-02T05:26:27;100126.25;;;14.76;87.70
692;BME280;70475;50.084;8.576;2023-07-02T05:28:55;100128.78;;;14.89;88.86
692;BME280;70475;50.084;8.576;2023-07-02T05:31:22;100127.81;;;14.84;86.62
692;BME280;70475;50.084;8.576;2023-07-02T05:33:50;100131.91;;;14.86;86.28
692;BME280;70475;50.084;8.576;2023-07-02T05:36:17;100130.56;;;14.95;86.95
692;BME280;70475;50.084;8.576;2023-07-02T05:38:46;100134.72;;;14.91;86.81
692;BME280;70475;50.084;8.576;2023-07-02T05:41:18;100128.53;;;15.09;86.70
692;BME280;70475;50.084;8.576;2023-07-02T05:43:45;100127.38;;;15.16;85.96
692;BME280;70475;50.084;8.576;2023-07-02T05:46:14;100135.13;;;15.24;84.27
692;BME280;70475;50.084;8.576;2023-07-02T05:48:42;100126.47;;;15.22;84.49
692;BME280;70475;50.084;8.576;2023-07-02T05:51:09;100132.97;;;15.15;84.84
692;BME280;70475;50.084;8.576;2023-07-02T05:53:37;100142.75;;;15.09;84.13
692;BME280;70475;50.084;8.576;2023-07-02T05:56:06;100148.28;;;15.14;84.65
692;BME280;70475;50.084;8.576;2023-07-02T05:58:33;100148.22;;;15.03;85.17
692;BME280;70475;50.084;8.576;2023-07-02T06:01:14;100154.25;;;14.98;86.97
692;BME280;70475;50.084;8.576;2023-07-02T06:03:41;100157.09;;;14.85;85.51
692;BME280;70475;50.084;8.576;2023-07-02T06:06:10;100162.63;;;15.02;86.88
692;BME280;70475;50.084;8.576;2023-07-02T06:08:38;100159.06;;;15.26;85.62
692;BME280;70475;50.084;8.576;2023-07-02T06:11:07;100163.81;;;15.24;84.17
692;BME280;70475;50.084;8.576;2023-07-02T06:13:35;100162.25;;;15.16;85.76
692;BME280;70475;50.084;8.576;2023-07-02T06:16:03;100166.94;;;15.21;84.25
692;BME280;70475;50.084;8.576;2023-07-02T06:18:30;100166.28;;;15.43;84.34
692;BME280;70475;50.084;8.576;2023-07-02T06:20:58;100172.94;;;15.70;83.67
692;BME280;70475;50.084;8.576;2023-07-02T06:23:26;100176.16;;;16.02;81.24
692;BME280;70475;50.084;8.576;2023-07-02T06:25:54;100175.41;;;16.24;79.13
692;BME280;70475;50.084;8.576;2023-07-02T06:28:26;100172.47;;;16.37;79.36
692;BME280;70475;50.084;8.576;2023-07-02T06:30:54;100168.78;;;16.50;79.67
692;BME280;70475;50.084;8.576;2023-07-02T06:33:22;100169.72;;;16.56;78.74
692;BME280;70475;50.084;8.576;2023-07-02T06:35:49;100178.38;;;16.58;78.79
692;BME280;70475;50.084;8.576;2023-07-02T06:38:17;100187.25;;;16.58;77.81
692;BME280;70475;50.084;8.576;2023-07-02T06:40:45;100173.91;;;16.75;78.05
692;BME280;70475;50.084;8.576;2023-07-02T06:43:13;100180.94;;;16.76;80.05
692;BME280;70475;50.084;8.576;2023-07-02T06:45:42;100185.38;;;16.82;77.28
692;BME280;70475;50.084;8.576;2023-07-02T06:48:09;100187.25;;;16.93;77.66
692;BME280;70475;50.084;8.576;2023-07-02T06:50:37;100186.31;;;16.99;75.54
692;BME280;70475;50.084;8.576;2023-07-02T06:53:05;100185.38;;;16.82;76.14
692;BME280;70475;50.084;8.576;2023-07-02T06:55:32;100175.31;;;17.00;78.30
692;BME280;70475;50.084;8.576;2023-07-02T06:58:00;100187.31;;;17.21;75.04
692;BME280;70475;50.084;8.576;2023-07-02T07:00:27;100184.34;;;17.34;74.06
692;BME280;70475;50.084;8.576;2023-07-02T07:02:56;100188.53;;;17.53;75.59
692;BME280;70475;50.084;8.576;2023-07-02T07:05:24;100178.75;;;17.63;74.15
692;BME280;70475;50.084;8.576;2023-07-02T07:07:51;100195.28;;;17.67;72.93
692;BME280;70475;50.084;8.576;2023-07-02T07:10:19;100193.44;;;17.84;74.52
692;BME280;70475;50.084;8.576;2023-07-02T07:12:47;100192.34;;;17.85;71.15
692;BME280;70475;50.084;8.576;2023-07-02T07:15:15;100192.50;;;18.06;71.10
692;BME280;70475;50.084;8.576;2023-07-02T07:17:43;100194.31;;;18.34;71.37
692;BME280;70475;50.084;8.576;2023-07-02T07:20:12;100192.91;;;18.65;70.00
692;BME280;70475;50.084;8.576;2023-07-02T07:22:40;100195.63;;;18.48;70.01
692;BME280;70475;50.084;8.576;2023-07-02T07:25:08;100190.66;;;18.40;71.19
692;BME280;70475;50.084;8.576;2023-07-02T07:27:36;100195.81;;;18.42;71.02
692;BME280;70475;50.084;8.576;2023-07-02T07:30:04;100202.78;;;18.26;72.41
692;BME280;70475;50.084;8.576;2023-07-02T07:32:32;100196.25;;;18.22;72.02
692;BME280;70475;50.084;8.576;2023-07-02T07:35:00;100201.75;;;18.27;72.53
692;BME280;70475;50.084;8.576;2023-07-02T07:37:29;100211.69;;;18.26;72.41
692;BME280;70475;50.084;8.576;2023-07-02T07:39:57;100206.47;;;18.20;70.37
692;BME280;70475;50.084;8.576;2023-07-02T07:42:24;100209.25;;;18.25;71.87
692;BME280;70475;50.084;8.576;2023-07-02T07:44:52;100202.34;;;18.46;70.41
692;BME280;70475;50.084;8.576;2023-07-02T07:47:20;100202.09;;;18.47;70.07
692;BME280;70475;50.084;8.576;2023-07-02T07:49:47;100213.19;;;18.34;70.58
692;BME280;70475;50.084;8.576;2023-07-02T07:52:15;100209.34;;;18.30;71.92
692;BME280;70475;50.084;8.576;2023-07-02T07:54:44;100214.50;;;18.31;71.54
692;BME280;70475;50.084;8.576;2023-07-02T07:57:11;100209.88;;;18.44;71.17
692;BME280;70475;50.084;8.576;2023-07-02T07:59:39;100205.13;;;18.67;71.77
692;BME280;70475;50.084;8.576;2023-07-02T08:02:06;100208.94;;;18.71;70.45
692;BME280;70475;50.084;8.576;2023-07-02T08:04:35;100210.44;;;18.62;69.70
692;BME280;70475;50.084;8.576;2023-07-02T08:07:03;100210.28;;;18.69;69.79
692;BME280;70475;50.084;8.576;2023-07-02T08:09:31;100205.63;;;18.64;68.77
692;BME280;70475;50.084;8.576;2023-07-02T08:12:00;100202.13;;;18.85;69.21
692;BME280;70475;50.084;8.576;2023-07-02T08:14:29;100207.06;;;19.10;66.70
692;BME280;70475;50.084;8.576;2023-07-02T08:16:56;100206.97;;;19.21;65.22
692;BME280;70475;50.084;8.576;2023-07-02T08:19:24;100207.31;;;19.08;65.98
692;BME280;70475;50.084;8.576;2023-07-02T08:21:54;100207.97;;;19.37;68.41
692;BME280;70475;50.084;8.576;2023-07-02T08:24:21;100206.09;;;19.37;66.41
692;BME280;70475;50.084;8.576;2023-07-02T08:26:49;100209.81;;;19.79;65.68
692;BME280;70475;50.084;8.576;2023-07-02T08:29:18;100207.13;;;20.06;61.70
692;BME280;70475;50.084;8.576;2023-07-02T08:31:46;100207.38;;;20.04;61.46
692;BME280;70475;50.084;8.576;2023-07-02T08:34:13;100201.19;;;20.30;62.81
692;BME280;70475;50.084;8.576;2023-07-02T08:36:41;100203.16;;;20.77;61.32
692;BME280;70475;50.084;8.576;2023-07-02T08:39:09;100207.69;;;20.71;60.73
692;BME280;70475;50.084;8.576;2023-07-02T08:41:42;100206.44;;;20.84;59.70
692;BME280;70475;50.084;8.576;2023-07-02T08:44:11;100205.50;;;21.00;59.80
692;BME280;70475;50.084;8.576;2023-07-02T08:46:41;100209.38;;;20.77;59.19
692;BME280;70475;50.084;8.576;2023-07-02T08:49:09;100201.22;;;21.14;59.48
692;BME280;70475;50.084;8.576;2023-07-02T08:51:37;100203.75;;;20.89;61.30
692;BME280;70475;50.084;8.576;2023-07-02T08:54:05;100211.56;;;20.80;60.86
692;BME280;70475;50.084;8.576;2023-07-02T08:56:32;100212.34;;;20.76;62.14
692;BME280;70475;50.084;8.576;2023-07-02T08:59:00;100207.53;;;20.88;59.87
692;BME280;70475;50.084;8.576;2023-07-02T09:01:27;100208.50;;;21.08;59.96
692;BME280;70475;50.084;8.576;2023-07-02T09:03:59;100211.47;;;21.02;58.41
692;BME280;70475;50.084;8.576;2023-07-02T09:06:27;100201.06;;;21.40;57.38
692;BME280;70475;50.084;8.576;2023-07-02T09:09:03;100197.06;;;21.53;56.68
692;BME280;70475;50.084;8.576;2023-07-02T09:11:31;100201.31;;;21.34;56.99
692;BME280;70475;50.084;8.576;2023-07-02T09:13:58;100200.53;;;21.43;56.83
692;BME280;70475;50.084;8.576;2023-07-02T09:16:28;100205.69;;;21.45;57.02
692;BME280;70475;50.084;8.576;2023-07-02T09:19:02;100193.00;;;21.50;57.97
692;BME280;70475;50.084;8.576;2023-07-02T09:21:43;100205.75;;;21.60;54.87
692;BME280;70475;50.084;8.576;2023-07-02T09:24:12;100198.16;;;21.57;54.93
692;BME280;70475;50.084;8.576;2023-07-02T09:26:42;100199.50;;;21.54;56.08
692;BME280;70475;50.084;8.576;2023-07-02T09:29:10;100202.53;;;21.73;55.34
692;BME280;70475;50.084;8.576;2023-07-02T09:31:44;100191.75;;;21.78;53.13
692;BME280;70475;50.084;8.576;2023-07-02T09:34:35;100195.56;;;21.77;51.96
692;BME280;70475;50.084;8.576;2023-07-02T09:37:04;100203.56;;;21.57;50.85
692;BME280;70475;50.084;8.576;2023-07-02T09:39:33;100201.41;;;21.49;51.35
692;BME280;70475;50.084;8.576;2023-07-02T09:42:04;100203.59;;;21.67;51.67
692;BME280;70475;50.084;8.576;2023-07-02T09:44:33;100209.66;;;21.89;50.73
692;BME280;70475;50.084;8.576;2023-07-02T09:47:02;100204.22;;;21.84;49.63
692;BME280;70475;50.084;8.576;2023-07-02T09:49:32;100210.72;;;21.78;51.75
692;BME280;70475;50.084;8.576;2023-07-02T09:52:04;100206.31;;;21.67;51.04
692;BME280;70475;50.084;8.576;2023-07-02T09:54:38;100200.97;;;21.82;52.05
692;BME280;70475;50.084;8.576;2023-07-02T09:57:06;100193.69;;;22.02;51.26
692;BME280;70475;50.084;8.576;2023-07-02T09:59:34;100189.06;;;22.08;48.31
692;BME280;70475;50.084;8.576;2023-07-02T10:02:02;100190.16;;;22.17;48.57
692;BME280;70475;50.084;8.576;2023-07-02T10:04:39;100207.00;;;22.29;48.98
692;BME280;70475;50.084;8.576;2023-07-02T10:07:09;100195.88;;;22.25;48.87
692;BME280;70475;50.084;8.576;2023-07-02T10:09:38;100194.81;;;22.32;48.68
692;BME280;70475;50.084;8.576;2023-07-02T10:12:16;100211.88;;;22.32;49.49
692;BME280;70475;50.084;8.576;2023-07-02T10:14:45;100211.06;;;22.16;49.20
692;BME280;70475;50.084;8.576;2023-07-02T10:17:23;100199.38;;;22.06;48.94
692;BME280;70475;50.084;8.576;2023-07-02T10:19:51;100202.63;;;22.08;49.54
692;BME280;70475;50.084;8.576;2023-07-02T10:22:20;100208.06;;;22.08;50.13
692;BME280;70475;50.084;8.576;2023-07-02T10:24:52;100199.38;;;22.06;48.92
692;BME280;70475;50.084;8.576;2023-07-02T10:27:20;100195.88;;;22.00;48.31
692;BME280;70475;50.084;8.576;2023-07-02T10:29:51;100195.59;;;22.17;47.80
692;BME280;70475;50.084;8.576;2023-07-02T10:32:26;100209.44;;;22.25;48.04
692;BME280;70475;50.084;8.576;2023-07-02T10:34:54;100197.22;;;22.38;47.92
692;BME280;70475;50.084;8.576;2023-07-02T10:37:23;100204.03;;;22.56;48.42
692;BME280;70475;50.084;8.576;2023-07-02T10:39:50;100210.28;;;22.61;48.22
692;BME280;70475;50.084;8.576;2023-07-02T10:42:19;100207.25;;;22.27;48.13
692;BME280;70475;50.084;8.576;2023-07-02T10:44:48;100198.31;;;22.32;49.35
692;BME280;70475;50.084;8.576;2023-07-02T10:47:16;100219.75;;;22.49;47.93
692;BME280;70475;50.084;8.576;2023-07-02T10:49:44;100204.28;;;22.39;47.10
692;BME280;70475;50.084;8.576;2023-07-02T10:52:12;100207.00;;;22.39;47.77
692;BME280;70475;50.084;8.576;2023-07-02T10:54:42;100210.28;;;22.46;48.08
692;BME280;70475;50.084;8.576;2023-07-02T10:57:13;100211.91;;;22.57;48.16
692;BME280;70475;50.084;8.576;2023-07-02T10:59:41;100203.19;;;22.45;47.61
692;BME280;70475;50.084;8.576;2023-07-02T11:02:09;100198.59;;;22.56;48.00
692;BME280;70475;50.084;8.576;2023-07-02T11:04:37;100200.50;;;22.65;47.69
692;BME280;70475;50.084;8.576;2023-07-02T11:07:05;100213.53;;;22.68;47.84
692;BME280;70475;50.084;8.576;2023-07-02T11:09:33;100203.75;;;22.12;46.73
692;BME280;70475;50.084;8.576;2023-07-02T11:12:02;100204.78;;;22.01;48.47
692;BME280;70475;50.084;8.576;2023-07-02T11:14:30;100203.16;;;21.95;47.64
692;BME280;70475;50.084;8.576;2023-07-02T11:16:59;100205.88;;;21.95;48.77
692;BME280;70475;50.084;8.576;2023-07-02T11:19:29;100200.50;;;22.15;49.06
692;BME280;70475;50.084;8.576;2023-07-02T11:21:57;100205.38;;;22.38;46.60
692;BME280;70475;50.084;8.576;2023-07-02T11:24:32;100199.94;;;22.33;46.41
692;BME280;70475;50.084;8.576;2023-07-02T11:27:03;100201.59;;;22.24;46.73
692;BME280;70475;50.084;8.576;2023-07-02T11:29:31;100193.97;;;22.21;45.85
692;BME280;70475;50.084;8.576;2023-07-02T11:32:06;100195.59;;;22.17;46.06
692;BME280;70475;50.084;8.576;2023-07-02T11:34:36;100200.44;;;21.85;45.78
692;BME280;70475;50.084;8.576;2023-07-02T11:37:04;100209.13;;;21.92;48.46
692;BME280;70475;50.084;8.576;2023-07-02T11:39:32;100203.72;;;22.17;46.84
692;BME280;70475;50.084;8.576;2023-07-02T11:42:01;100199.94;;;22.33;47.29
692;BME280;70475;50.084;8.576;2023-07-02T11:44:29;100197.28;;;22.58;45.71
692;BME280;70475;50.084;8.576;2023-07-02T11:46:56;100202.09;;;22.86;44.91
692;BME280;70475;50.084;8.576;2023-07-02T11:49:24;100189.09;;;22.83;41.68
692;BME280;70475;50.084;8.576;2023-07-02T11:51:52;100199.66;;;22.90;41.73
692;BME280;70475;50.084;8.576;2023-07-02T11:54:19;100199.69;;;22.80;43.20
692;BME280;70475;50.084;8.576;2023-07-02T11:56:47;100192.91;;;22.72;42.64
692;BME280;70475;50.084;8.576;2023-07-02T11:59:16;100199.41;;;22.66;43.10
692;BME280;70475;50.084;8.576;2023-07-02T12:01:44;100202.13;;;22.71;41.57
692;BME280;70475;50.084;8.576;2023-07-02T12:04:12;100199.16;;;22.53;42.38
692;BME280;70475;50.084;8.576;2023-07-02T12:06:39;100205.34;;;22.08;42.72
692;BME280;70475;50.084;8.576;2023-07-02T12:09:07;100211.06;;;22.26;43.62
692;BME280;70475;50.084;8.576;2023-07-02T12:11:35;100200.22;;;22.62;41.00
692;BME280;70475;50.084;8.576;2023-07-02T12:14:03;100201.59;;;22.74;40.15
692;BME280;70475;50.084;8.576;2023-07-02T12:16:32;100197.53;;;22.57;40.42
692;BME280;70475;50.084;8.576;2023-07-02T12:18:59;100202.41;;;22.55;41.35
692;BME280;70475;50.084;8.576;2023-07-02T12:21:27;100200.50;;;22.80;39.07
692;BME280;70475;50.084;8.576;2023-07-02T12:23:55;100203.75;;;22.77;40.14
692;BME280;70475;50.084;8.576;2023-07-02T12:26:22;100195.00;;;23.00;39.85
692;BME280;70475;50.084;8.576;2023-07-02T12:28:50;100199.63;;;23.00;39.60
692;BME280;70475;50.084;8.576;2023-07-02T12:31:17;100203.72;;;23.02;39.19
692;BME280;70475;50.084;8.576;2023-07-02T12:33:46;100192.84;;;22.92;39.04
692;BME280;70475;50.084;8.576;2023-07-02T12:36:14;100194.47;;;22.98;39.90
692;BME280;70475;50.084;8.576;2023-07-02T12:38:41;100199.41;;;22.66;38.76
692;BME280;70475;50.084;8.576;2023-07-02T12:41:09;100198.31;;;22.67;39.53
692;BME280;70475;50.084;8.576;2023-07-02T12:43:37;100212.44;;;22.54;39.67
692;BME280;70475;50.084;8.576;2023-07-02T12:46:06;100213.81;;;22.52;40.95
692;BME280;70475;50.084;8.576;2023-07-02T12:48:34;100210.81;;;22.38;41.55
692;BME280;70475;50.084;8.576;2023-07-02T12:51:02;100211.34;;;22.70;41.29
692;BME280;70475;50.084;8.576;2023-07-02T12:53:30;100213.47;;;22.98;40.09
692;BME280;70475;50.084;8.576;2023-07-02T12:55:58;100217.28;;;22.97;41.57
692;BME280;70475;50.084;8.576;2023-07-02T12:58:25;100218.66;;;22.85;40.82
692;BME280;70475;50.084;8.576;2023-07-02T13:00:53;100225.22;;;22.74;41.57
692;BME280;70475;50.084;8.576;2023-07-02T13:03:21;100232.00;;;22.66;42.31
692;BME280;70475;50.084;8.576;2023-07-02T13:05:51;100227.38;;;22.77;41.68
692;BME280;70475;50.084;8.576;2023-07-02T13:08:20;100231.47;;;22.74;42.38
692;BME280;70475;50.084;8.576;2023-07-02T13:10:48;100227.88;;;22.94;40.49
692;BME280;70475;50.084;8.576;2023-07-02T13:13:15;100230.09;;;22.67;40.93
692;BME280;70475;50.084;8.576;2023-07-02T13:15:49;100235.25;;;22.78;41.11